sensor_id;sensor_type;location;lat;lon;timestamp;temperature;humidity
26342;DHT22;14054;50.108;8.640;2024-01-15T00:01:14;-1.70;99.90
26342;DHT22;14054;50.108;8.640;2024-01-15T00:03:39;-1.70;99.90
26342;DHT22;14054;50.108;8.640;2024-01-15T00:06:05;-1.70;99.90
26342;DHT22;14054;50.108;8.640;2024-01-15T00:08:31;-1.70;99.90
26342;DHT22;14054;50.108;8.640;2024-01-15T00:10:56;-1.70;99.90
26342;DHT22;14054;50.108;8.640;2024-01-15T00:13:22;-1.80;99.90
26342;DHT22;14054;50.108;8.640;2024-01-15T00:15:47;-1.80;99.90
26342;DHT22;14054;50.108;8.640;2024-01-15T00:18:13;-1.70;99.90
26342;DHT22;14054;50.108;8.640;2024-01-15T00:20:38;-1.70;99.90
26342;DHT22;14054;50.108;8.640;2024-01-15T00:23:04;-1.80;99.90
26342;DHT22;14054;50.108;8.640;2024-01-15T00:25:29;-1.80;99.90
26342;DHT22;14054;50.108;8.640;2024-01-15T00:27:55;-1.80;99.90
26342;DHT22;14054;50.108;8.640;2024-01-15T00:30:20;-1.80;99.90
26342;DHT22;14054;50.108;8.640;2024-01-15T00:32:46;-1.80;99.90
26342;DHT22;14054;50.108;8.640;2024-01-15T00:35:11;-1.80;99.90
26342;DHT22;14054;50.108;8.640;2024-01-15T00:37:37;-1.70;99.90
26342;DHT22;14054;50.108;8.640;2024-01-15T00:40:03;-1.70;99.90
26342;DHT22;14054;50.108;8.640;2024-01-15T00:42:29;-1.70;99.90
26342;DHT22;14054;50.108;8.640;2024-01-15T00:44:54;-1.70;99.90
26342;DHT22;14054;50.108;8.640;2024-01-15T00:47:20;-1.70;99.90
26342;DHT22;14054;50.108;8.640;2024-01-15T00:49:45;-1.70;99.90
26342;DHT22;14054;50.108;8.640;2024-01-15T00:52:12;-1.70;99.90
26342;DHT22;14054;50.108;8.640;2024-01-15T00:54:38;-1.70;99.90
26342;DHT22;14054;50.108;8.640;2024-01-15T00:57:04;-1.70;99.90
26342;DHT22;14054;50.108;8.640;2024-01-15T00:59:30;-1.70;99.90
26342;DHT22;14054;50.108;8.640;2024-01-15T01:01:55;-1.70;99.90
26342;DHT22;14054;50.108;8.640;2024-01-15T01:04:21;-1.70;99.90
26342;DHT22;14054;50.108;8.640;2024-01-15T01:06:46;-1.70;99.90
26342;DHT22;14054;50.108;8.640;2024-01-15T01:09:11;-1.70;99.90
26342;DHT22;14054;50.108;8.640;2024-01-15T01:11:37;-1.70;99.90
26342;DHT22;14054;50.108;8.640;2024-01-15T01:14:02;-1.70;99.90
26342;DHT22;14054;50.108;8.640;2024-01-15T01:16:28;-1.70;99.90
26342;DHT22;14054;50.108;8.640;2024-01-15T01:18:54;-1.60;99.90
26342;DHT22;14054;50.108;8.640;2024-01-15T01:21:19;-1.60;99.90
26342;DHT22;14054;50.108;8.640;2024-01-15T01:23:45;-1.60;99.90
26342;DHT22;14054;50.108;8.640;2024-01-15T01:26:10;-1.60;99.90
26342;DHT22;14054;50.108;8.640;2024-01-15T01:28:35;-1.60;99.90
26342;DHT22;14054;50.108;8.640;2024-01-15T01:31:01;-1.60;99.90
26342;DHT22;14054;50.108;8.640;2024-01-15T01:33:27;-1.50;99.90
26342;DHT22;14054;50.108;8.640;2024-01-15T01:35:52;-1.50;99.90
26342;DHT22;14054;50.108;8.640;2024-01-15T01:38:18;-1.50;99.90
26342;DHT22;14054;50.108;8.640;2024-01-15T01:40:44;-1.50;99.90
26342;DHT22;14054;50.108;8.640;2024-01-15T01:43:09;-1.50;99.90
26342;DHT22;14054;50.108;8.640;2024-01-15T01:45:35;-1.50;99.90
26342;DHT22;14054;50.108;8.640;2024-01-15T01:48:01;-1.50;99.90
26342;DHT22;14054;50.108;8.640;2024-01-15T01:50:29;-1.40;99.90
26342;DHT22;14054;50.108;8.640;2024-01-15T01:52:55;-1.50;99.90
26342;DHT22;14054;50.108;8.640;2024-01-15T01:55:22;-1.40;99.90
26342;DHT22;14054;50.108;8.640;2024-01-15T01:57:50;-1.40;99.90
26342;DHT22;14054;50.108;8.640;2024-01-15T02:00:16;-1.40;99.90
26342;DHT22;14054;50.108;8.640;2024-01-15T02:02:42;-1.50;99.90
26342;DHT22;14054;50.108;8.640;2024-01-15T02:05:08;-1.40;99.90
26342;DHT22;14054;50.108;8.640;2024-01-15T02:07:34;-1.50;99.90
26342;DHT22;14054;50.108;8.640;2024-01-15T02:10:00;-1.50;99.90
26342;DHT22;14054;50.108;8.640;2024-01-15T02:12:26;-1.40;99.90
26342;DHT22;14054;50.108;8.640;2024-01-15T02:14:52;-1.50;99.90
26342;DHT22;14054;50.108;8.640;2024-01-15T02:17:17;-1.50;99.90
26342;DHT22;14054;50.108;8.640;2024-01-15T02:19:43;-1.40;99.90
26342;DHT22;14054;50.108;8.640;2024-01-15T02:22:08;-1.50;99.90
26342;DHT22;14054;50.108;8.640;2024-01-15T02:24:33;-1.40;99.90
26342;DHT22;14054;50.108;8.640;2024-01-15T02:26:59;-1.40;99.90
26342;DHT22;14054;50.108;8.640;2024-01-15T02:29:25;-1.50;99.90
26342;DHT22;14054;50.108;8.640;2024-01-15T02:31:50;-1.40;99.90
26342;DHT22;14054;50.108;8.640;2024-01-15T02:34:16;-1.40;99.90
26342;DHT22;14054;50.108;8.640;2024-01-15T02:36:41;-1.40;99.90
26342;DHT22;14054;50.108;8.640;2024-01-15T02:39:07;-1.40;99.90
26342;DHT22;14054;50.108;8.640;2024-01-15T02:41:32;-1.40;99.90
26342;DHT22;14054;50.108;8.640;2024-01-15T02:43:58;-1.40;99.90
26342;DHT22;14054;50.108;8.640;2024-01-15T02:46:23;-1.40;99.90
26342;DHT22;14054;50.108;8.640;2024-01-15T02:48:48;-1.30;99.90
26342;DHT22;14054;50.108;8.640;2024-01-15T02:51:14;-1.30;99.90
26342;DHT22;14054;50.108;8.640;2024-01-15T02:53:39;-1.30;99.90
26342;DHT22;14054;50.108;8.640;2024-01-15T02:56:07;-1.30;99.90
26342;DHT22;14054;50.108;8.640;2024-01-15T02:58:32;-1.30;99.90
26342;DHT22;14054;50.108;8.640;2024-01-15T03:00:58;-1.20;99.90
26342;DHT22;14054;50.108;8.640;2024-01-15T03:03:23;-1.20;99.90
26342;DHT22;14054;50.108;8.640;2024-01-15T03:05:49;-1.30;99.90
26342;DHT22;14054;50.108;8.640;2024-01-15T03:08:15;-1.30;99.90
26342;DHT22;14054;50.108;8.640;2024-01-15T03:10:41;-1.30;99.90
26342;DHT22;14054;50.108;8.640;2024-01-15T03:13:06;-1.30;99.90
26342;DHT22;14054;50.108;8.640;2024-01-15T03:15:32;-1.30;99.90
26342;DHT22;14054;50.108;8.640;2024-01-15T03:17:57;-1.40;99.90
26342;DHT22;14054;50.108;8.640;2024-01-15T03:20:23;-1.40;99.90
26342;DHT22;14054;50.108;8.640;2024-01-15T03:22:48;-1.40;99.90
26342;DHT22;14054;50.108;8.640;2024-01-15T03:25:14;-1.40;99.90
26342;DHT22;14054;50.108;8.640;2024-01-15T03:27:39;-1.40;99.90
26342;DHT22;14054;50.108;8.640;2024-01-15T03:30:05;-1.40;99.90
26342;DHT22;14054;50.108;8.640;2024-01-15T03:32:31;-1.40;99.90
26342;DHT22;14054;50.108;8.640;2024-01-15T03:34:57;-1.40;99.90
26342;DHT22;14054;50.108;8.640;2024-01-15T03:37:22;-1.40;99.90
26342;DHT22;14054;50.108;8.640;2024-01-15T03:39:48;-1.40;99.90
26342;DHT22;14054;50.108;8.640;2024-01-15T03:42:13;-1.40;99.90
26342;DHT22;14054;50.108;8.640;2024-01-15T03:44:39;-1.40;99.90
26342;DHT22;14054;50.108;8.640;2024-01-15T03:47:05;-1.40;99.90
26342;DHT22;14054;50.108;8.640;2024-01-15T03:49:30;-1.40;99.90
26342;DHT22;14054;50.108;8.640;2024-01-15T03:51:56;-1.40;99.90
26342;DHT22;14054;50.108;8.640;2024-01-15T03:54:21;-1.40;99.90
26342;DHT22;14054;50.108;8.640;2024-01-15T03:56:47;-1.40;99.90
26342;DHT22;14054;50.108;8.640;2024-01-15T03:59:12;-1.40;99.90
26342;DHT22;14054;50.108;8.640;2024-01-15T04:01:38;-1.40;99.90
26342;DHT22;14054;50.108;8.640;2024-01-15T04:04:03;-1.40;99.90
26342;DHT22;14054;50.108;8.640;2024-01-15T04:06:29;-1.40;99.90
26342;DHT22;14054;50.108;8.640;2024-01-15T04:08:54;-1.40;99.90
26342;DHT22;14054;50.108;8.640;2024-01-15T04:11:20;-1.30;99.90
26342;DHT22;14054;50.108;8.640;2024-01-15T04:13:45;-1.30;99.90
26342;DHT22;14054;50.108;8.640;2024-01-15T04:16:11;-1.30;99.90
26342;DHT22;14054;50.108;8.640;2024-01-15T04:18:36;-1.30;99.90
26342;DHT22;14054;50.108;8.640;2024-01-15T04:21:04;-1.20;99.90
26342;DHT22;14054;50.108;8.640;2024-01-15T04:23:30;-1.30;99.90
26342;DHT22;14054;50.108;8.640;2024-01-15T04:25:57;-1.30;99.90
26342;DHT22;14054;50.108;8.640;2024-01-15T04:28:22;-1.20;99.90
26342;DHT22;14054;50.108;8.640;2024-01-15T04:30:48;-1.30;99.90
26342;DHT22;14054;50.108;8.640;2024-01-15T04:33:13;-1.20;99.90
26342;DHT22;14054;50.108;8.640;2024-01-15T04:35:39;-1.20;99.90
26342;DHT22;14054;50.108;8.640;2024-01-15T04:38:04;-1.20;99.90
26342;DHT22;14054;50.108;8.640;2024-01-15T04:40:30;-1.20;99.90
26342;DHT22;14054;50.108;8.640;2024-01-15T04:42:55;-1.20;99.90
26342;DHT22;14054;50.108;8.640;2024-01-15T04:45:21;-1.20;99.90
26342;DHT22;14054;50.108;8.640;2024-01-15T04:47:48;-1.10;99.90
26342;DHT22;14054;50.108;8.640;2024-01-15T04:50:14;-1.10;99.90
26342;DHT22;14054;50.108;8.640;2024-01-15T04:52:39;-1.10;99.90
26342;DHT22;14054;50.108;8.640;2024-01-15T04:55:05;-1.10;99.90
26342;DHT22;14054;50.108;8.640;2024-01-15T04:57:30;-1.10;99.90
26342;DHT22;14054;50.108;8.640;2024-01-15T04:59:56;-1.10;99.90
26342;DHT22;14054;50.108;8.640;2024-01-15T05:02:21;-1.10;99.90
26342;DHT22;14054;50.108;8.640;2024-01-15T05:04:47;-1.10;99.90
26342;DHT22;14054;50.108;8.640;2024-01-15T05:07:12;-1.00;99.90
26342;DHT22;14054;50.108;8.640;2024-01-15T05:09:38;-1.00;99.90
26342;DHT22;14054;50.108;8.640;2024-01-15T05:12:04;-1.00;99.90
26342;DHT22;14054;50.108;8.640;2024-01-15T05:14:29;-1.00;99.90
26342;DHT22;14054;50.108;8.640;2024-01-15T05:16:55;-1.00;99.90
26342;DHT22;14054;50.108;8.640;2024-01-15T05:19:20;-1.00;99.90
26342;DHT22;14054;50.108;8.640;2024-01-15T05:21:45;-1.00;99.90
26342;DHT22;14054;50.108;8.640;2024-01-15T05:24:11;-1.00;99.90
26342;DHT22;14054;50.108;8.640;2024-01-15T05:26:36;-0.90;99.90
26342;DHT22;14054;50.108;8.640;2024-01-15T05:29:02;-0.90;99.90
26342;DHT22;14054;50.108;8.640;2024-01-15T05:31:27;-0.90;99.90
26342;DHT22;14054;50.108;8.640;2024-01-15T05:33:53;-0.90;99.90
26342;DHT22;14054;50.108;8.640;2024-01-15T05:36:18;-0.90;99.90
26342;DHT22;14054;50.108;8.640;2024-01-15T05:38:44;-0.90;99.90
26342;DHT22;14054;50.108;8.640;2024-01-15T05:41:10;-0.90;99.90
26342;DHT22;14054;50.108;8.640;2024-01-15T05:43:35;-0.90;99.90
26342;DHT22;14054;50.108;8.640;2024-01-15T05:46:00;-0.90;99.90
26342;DHT22;14054;50.108;8.640;2024-01-15T05:48:26;-0.80;99.90
26342;DHT22;14054;50.108;8.640;2024-01-15T05:50:51;-0.90;99.90
26342;DHT22;14054;50.108;8.640;2024-01-15T05:53:17;-0.90;99.90
26342;DHT22;14054;50.108;8.640;2024-01-15T05:55:42;-0.80;99.90
26342;DHT22;14054;50.108;8.640;2024-01-15T05:58:08;-0.80;99.90
26342;DHT22;14054;50.108;8.640;2024-01-15T06:00:33;-0.80;99.90
26342;DHT22;14054;50.108;8.640;2024-01-15T06:03:00;-0.90;99.90
26342;DHT22;14054;50.108;8.640;2024-01-15T06:05:26;-0.80;99.90
26342;DHT22;14054;50.108;8.640;2024-01-15T06:07:51;-0.90;99.90
26342;DHT22;14054;50.108;8.640;2024-01-15T06:10:17;-0.90;99.90
26342;DHT22;14054;50.108;8.640;2024-01-15T06:12:43;-0.90;99.90
26342;DHT22;14054;50.108;8.640;2024-01-15T06:15:09;-0.90;99.90
26342;DHT22;14054;50.108;8.640;2024-01-15T06:17:35;-0.90;99.90
26342;DHT22;14054;50.108;8.640;2024-01-15T06:20:01;-0.90;99.90
26342;DHT22;14054;50.108;8.640;2024-01-15T06:22:26;-0.90;99.90
26342;DHT22;14054;50.108;8.640;2024-01-15T06:24:51;-0.90;99.90
26342;DHT22;14054;50.108;8.640;2024-01-15T06:27:17;-0.90;99.90
26342;DHT22;14054;50.108;8.640;2024-01-15T06:29:45;-0.90;99.90
26342;DHT22;14054;50.108;8.640;2024-01-15T06:32:14;-0.90;99.90
26342;DHT22;14054;50.108;8.640;2024-01-15T06:34:39;-0.90;99.90
26342;DHT22;14054;50.108;8.640;2024-01-15T06:37:05;-0.90;99.90
26342;DHT22;14054;50.108;8.640;2024-01-15T06:39:31;-0.90;99.90
26342;DHT22;14054;50.108;8.640;2024-01-15T06:41:56;-0.90;99.90
26342;DHT22;14054;50.108;8.640;2024-01-15T06:44:22;-0.90;99.90
26342;DHT22;14054;50.108;8.640;2024-01-15T06:46:48;-1.00;99.90
26342;DHT22;14054;50.108;8.640;2024-01-15T06:49:13;-0.90;99.90
26342;DHT22;14054;50.108;8.640;2024-01-15T06:51:39;-0.90;99.90
26342;DHT22;14054;50.108;8.640;2024-01-15T06:54:04;-0.90;99.90
26342;DHT22;14054;50.108;8.640;2024-01-15T06:56:31;-1.00;99.90
26342;DHT22;14054;50.108;8.640;2024-01-15T06:58:57;-1.00;99.90
26342;DHT22;14054;50.108;8.640;2024-01-15T07:01:22;-1.00;99.90
26342;DHT22;14054;50.108;8.640;2024-01-15T07:03:48;-1.00;99.90
26342;DHT22;14054;50.108;8.640;2024-01-15T07:06:13;-1.00;99.90
26342;DHT22;14054;50.108;8.640;2024-01-15T07:08:39;-1.00;99.90
26342;DHT22;14054;50.108;8.640;2024-01-15T07:11:05;-1.00;99.90
26342;DHT22;14054;50.108;8.640;2024-01-15T07:13:31;-1.00;99.90
26342;DHT22;14054;50.108;8.640;2024-01-15T07:15:57;-1.00;99.90
26342;DHT22;14054;50.108;8.640;2024-01-15T07:18:22;-1.00;99.90
26342;DHT22;14054;50.108;8.640;2024-01-15T07:20:48;-1.00;99.90
26342;DHT22;14054;50.108;8.640;2024-01-15T07:23:14;-0.90;99.90
26342;DHT22;14054;50.108;8.640;2024-01-15T07:25:39;-0.90;99.90
26342;DHT22;14054;50.108;8.640;2024-01-15T07:28:05;-0.90;99.90
26342;DHT22;14054;50.108;8.640;2024-01-15T07:30:31;-0.90;99.90
26342;DHT22;14054;50.108;8.640;2024-01-15T07:32:56;-0.90;99.90
26342;DHT22;14054;50.108;8.640;2024-01-15T07:35:22;-0.80;99.90
26342;DHT22;14054;50.108;8.640;2024-01-15T07:37:47;-0.80;99.90
26342;DHT22;14054;50.108;8.640;2024-01-15T07:40:13;-0.80;99.90
26342;DHT22;14054;50.108;8.640;2024-01-15T07:42:38;-0.80;99.90
26342;DHT22;14054;50.108;8.640;2024-01-15T07:45:05;-0.70;99.90
26342;DHT22;14054;50.108;8.640;2024-01-15T07:47:30;-0.70;99.90
26342;DHT22;14054;50.108;8.640;2024-01-15T07:49:56;-0.70;99.90
26342;DHT22;14054;50.108;8.640;2024-01-15T07:52:21;-0.70;99.90
26342;DHT22;14054;50.108;8.640;2024-01-15T07:54:47;-0.70;99.90
26342;DHT22;14054;50.108;8.640;2024-01-15T07:57:13;-0.60;99.90
26342;DHT22;14054;50.108;8.640;2024-01-15T07:59:39;-0.60;99.90
26342;DHT22;14054;50.108;8.640;2024-01-15T08:02:05;-0.60;99.90
26342;DHT22;14054;50.108;8.640;2024-01-15T08:04:31;-0.60;99.90
26342;DHT22;14054;50.108;8.640;2024-01-15T08:06:57;-0.60;99.90
26342;DHT22;14054;50.108;8.640;2024-01-15T08:09:22;-0.50;99.90
26342;DHT22;14054;50.108;8.640;2024-01-15T08:11:48;-0.50;99.90
26342;DHT22;14054;50.108;8.640;2024-01-15T08:14:14;-0.50;99.90
26342;DHT22;14054;50.108;8.640;2024-01-15T08:16:40;-0.40;99.90
26342;DHT22;14054;50.108;8.640;2024-01-15T08:19:06;-0.40;99.90
26342;DHT22;14054;50.108;8.640;2024-01-15T08:21:32;-0.40;99.90
26342;DHT22;14054;50.108;8.640;2024-01-15T08:24:01;-0.40;99.90
26342;DHT22;14054;50.108;8.640;2024-01-15T08:26:30;-0.40;99.90
26342;DHT22;14054;50.108;8.640;2024-01-15T08:28:56;-0.30;99.90
26342;DHT22;14054;50.108;8.640;2024-01-15T08:31:21;-0.30;99.90
26342;DHT22;14054;50.108;8.640;2024-01-15T08:33:47;-0.30;99.90
26342;DHT22;14054;50.108;8.640;2024-01-15T08:36:13;-0.20;99.90
26342;DHT22;14054;50.108;8.640;2024-01-15T08:38:38;-0.30;99.90
26342;DHT22;14054;50.108;8.640;2024-01-15T08:41:04;-0.20;99.90
26342;DHT22;14054;50.108;8.640;2024-01-15T08:43:32;-0.20;99.90
26342;DHT22;14054;50.108;8.640;2024-01-15T08:45:58;-0.10;99.90
26342;DHT22;14054;50.108;8.640;2024-01-15T08:48:24;-0.10;99.90
26342;DHT22;14054;50.108;8.640;2024-01-15T08:50:53;-0.10;99.90
26342;DHT22;14054;50.108;8.640;2024-01-15T08:53:18;-0.10;99.90
26342;DHT22;14054;50.108;8.640;2024-01-15T08:55:44;0.00;99.90
26342;DHT22;14054;50.108;8.640;2024-01-15T08:58:10;0.00;99.90
26342;DHT22;14054;50.108;8.640;2024-01-15T09:00:35;0.00;99.90
26342;DHT22;14054;50.108;8.640;2024-01-15T09:03:02;0.10;99.90
26342;DHT22;14054;50.108;8.640;2024-01-15T09:05:27;0.10;99.90
26342;DHT22;14054;50.108;8.640;2024-01-15T09:07:54;0.20;99.90
26342;DHT22;14054;50.108;8.640;2024-01-15T09:10:20;0.20;99.90
26342;DHT22;14054;50.108;8.640;2024-01-15T09:12:46;0.20;99.90
26342;DHT22;14054;50.108;8.640;2024-01-15T09:15:12;0.20;99.90
26342;DHT22;14054;50.108;8.640;2024-01-15T09:17:37;0.30;99.90
26342;DHT22;14054;50.108;8.640;2024-01-15T09:20:03;0.30;99.90
26342;DHT22;14054;50.108;8.640;2024-01-15T09:22:32;0.40;99.90
26342;DHT22;14054;50.108;8.640;2024-01-15T09:24:58;0.40;99.90
26342;DHT22;14054;50.108;8.640;2024-01-15T09:27:24;0.40;99.90
26342;DHT22;14054;50.108;8.640;2024-01-15T09:29:52;0.60;99.90
26342;DHT22;14054;50.108;8.640;2024-01-15T09:32:17;0.80;99.90
26342;DHT22;14054;50.108;8.640;2024-01-15T09:34:43;1.30;99.90
26342;DHT22;14054;50.108;8.640;2024-01-15T09:37:09;1.50;99.90
26342;DHT22;14054;50.108;8.640;2024-01-15T09:39:34;1.60;99.90
26342;DHT22;14054;50.108;8.640;2024-01-15T09:42:01;1.60;99.90
26342;DHT22;14054;50.108;8.640;2024-01-15T09:44:27;1.40;99.90
26342;DHT22;14054;50.108;8.640;2024-01-15T09:46:53;1.20;99.90
26342;DHT22;14054;50.108;8.640;2024-01-15T09:49:20;1.10;99.90
26342;DHT22;14054;50.108;8.640;2024-01-15T09:51:49;1.20;99.90
26342;DHT22;14054;50.108;8.640;2024-01-15T09:54:15;1.40;99.90
26342;DHT22;14054;50.108;8.640;2024-01-15T09:56:45;1.70;99.90
26342;DHT22;14054;50.108;8.640;2024-01-15T09:59:15;2.00;99.90
26342;DHT22;14054;50.108;8.640;2024-01-15T10:01:41;1.90;99.90
26342;DHT22;14054;50.108;8.640;2024-01-15T10:04:07;1.90;99.90
26342;DHT22;14054;50.108;8.640;2024-01-15T10:06:32;1.80;99.90
26342;DHT22;14054;50.108;8.640;2024-01-15T10:08:59;1.70;99.90
26342;DHT22;14054;50.108;8.640;2024-01-15T10:11:25;1.60;99.90
26342;DHT22;14054;50.108;8.640;2024-01-15T10:13:50;1.60;99.90
26342;DHT22;14054;50.108;8.640;2024-01-15T10:16:18;1.50;99.90
26342;DHT22;14054;50.108;8.640;2024-01-15T10:18:44;1.50;99.90
26342;DHT22;14054;50.108;8.640;2024-01-15T10:21:09;1.60;99.90
26342;DHT22;14054;50.108;8.640;2024-01-15T10:23:35;1.60;99.90
26342;DHT22;14054;50.108;8.640;2024-01-15T10:26:02;1.60;99.90
26342;DHT22;14054;50.108;8.640;2024-01-15T10:28:28;1.70;99.90
26342;DHT22;14054;50.108;8.640;2024-01-15T10:30:57;1.70;99.90
26342;DHT22;14054;50.108;8.640;2024-01-15T10:33:24;1.70;99.90
26342;DHT22;14054;50.108;8.640;2024-01-15T10:35:57;1.70;99.90
26342;DHT22;14054;50.108;8.640;2024-01-15T10:38:24;1.70;99.90
26342;DHT22;14054;50.108;8.640;2024-01-15T10:40:54;1.60;99.90
26342;DHT22;14054;50.108;8.640;2024-01-15T10:43:20;1.50;99.90
26342;DHT22;14054;50.108;8.640;2024-01-15T10:45:49;1.40;99.90
26342;DHT22;14054;50.108;8.640;2024-01-15T10:48:19;1.50;99.90
26342;DHT22;14054;50.108;8.640;2024-01-15T10:50:47;1.60;99.90
26342;DHT22;14054;50.108;8.640;2024-01-15T10:53:15;1.50;99.90
26342;DHT22;14054;50.108;8.640;2024-01-15T10:55:41;1.50;99.90
26342;DHT22;14054;50.108;8.640;2024-01-15T10:58:08;1.70;99.90
26342;DHT22;14054;50.108;8.640;2024-01-15T11:00:37;1.80;99.90
26342;DHT22;14054;50.108;8.640;2024-01-15T11:03:03;2.10;99.90
26342;DHT22;14054;50.108;8.640;2024-01-15T11:05:34;2.40;99.90
26342;DHT22;14054;50.108;8.640;2024-01-15T11:08:01;2.60;99.90
26342;DHT22;14054;50.108;8.640;2024-01-15T11:10:38;2.90;99.90
26342;DHT22;14054;50.108;8.640;2024-01-15T11:13:07;3.50;99.90
26342;DHT22;14054;50.108;8.640;2024-01-15T11:15:56;3.50;99.90
26342;DHT22;14054;50.108;8.640;2024-01-15T11:18:27;3.20;99.90
26342;DHT22;14054;50.108;8.640;2024-01-15T11:23:46;3.00;99.90
26342;DHT22;14054;50.108;8.640;2024-01-15T11:29:55;3.20;99.90
26342;DHT22;14054;50.108;8.640;2024-01-15T11:31:58;3.20;99.90
26342;DHT22;14054;50.108;8.640;2024-01-15T11:34:54;3.10;99.90
26342;DHT22;14054;50.108;8.640;2024-01-15T11:40:18;2.80;99.90
26342;DHT22;14054;50.108;8.640;2024-01-15T11:42:44;2.70;99.90
26342;DHT22;14054;50.108;8.640;2024-01-15T11:45:10;2.70;99.90
26342;DHT22;14054;50.108;8.640;2024-01-15T11:50:33;2.60;99.90
26342;DHT22;14054;50.108;8.640;2024-01-15T11:53:01;2.60;99.90
26342;DHT22;14054;50.108;8.640;2024-01-15T11:55:29;2.60;99.90
26342;DHT22;14054;50.108;8.640;2024-01-15T11:57:58;2.60;99.90
26342;DHT22;14054;50.108;8.640;2024-01-15T12:00:24;2.60;99.90
26342;DHT22;14054;50.108;8.640;2024-01-15T12:02:50;2.70;99.90
26342;DHT22;14054;50.108;8.640;2024-01-15T12:05:20;2.70;99.90
26342;DHT22;14054;50.108;8.640;2024-01-15T12:07:47;2.90;99.90
26342;DHT22;14054;50.108;8.640;2024-01-15T12:12:47;2.90;99.90
26342;DHT22;14054;50.108;8.640;2024-01-15T12:15:17;2.80;99.90
26342;DHT22;14054;50.108;8.640;2024-01-15T12:17:42;2.60;99.90
26342;DHT22;14054;50.108;8.640;2024-01-15T12:20:08;2.60;99.90
26342;DHT22;14054;50.108;8.640;2024-01-15T12:22:34;2.70;99.90
26342;DHT22;14054;50.108;8.640;2024-01-15T12:25:00;2.60;99.90
26342;DHT22;14054;50.108;8.640;2024-01-15T12:27:26;2.70;99.90
26342;DHT22;14054;50.108;8.640;2024-01-15T12:29:53;2.70;99.90
26342;DHT22;14054;50.108;8.640;2024-01-15T12:32:19;2.70;99.90
26342;DHT22;14054;50.108;8.640;2024-01-15T12:34:44;2.70;99.90
26342;DHT22;14054;50.108;8.640;2024-01-15T12:37:11;2.70;99.90
26342;DHT22;14054;50.108;8.640;2024-01-15T12:39:37;2.70;99.90
26342;DHT22;14054;50.108;8.640;2024-01-15T12:42:03;2.70;99.90
26342;DHT22;14054;50.108;8.640;2024-01-15T12:44:29;2.70;99.90
26342;DHT22;14054;50.108;8.640;2024-01-15T12:46:55;2.60;99.90
26342;DHT22;14054;50.108;8.640;2024-01-15T12:49:21;2.60;99.90
26342;DHT22;14054;50.108;8.640;2024-01-15T12:51:53;2.70;99.90
26342;DHT22;14054;50.108;8.640;2024-01-15T12:54:18;2.70;99.90
26342;DHT22;14054;50.108;8.640;2024-01-15T12:56:44;2.80;99.90
26342;DHT22;14054;50.108;8.640;2024-01-15T12:59:10;2.80;99.90
26342;DHT22;14054;50.108;8.640;2024-01-15T13:01:36;2.80;99.90
26342;DHT22;14054;50.108;8.640;2024-01-15T13:04:01;2.80;99.90
26342;DHT22;14054;50.108;8.640;2024-01-15T13:06:27;2.70;99.90
26342;DHT22;14054;50.108;8.640;2024-01-15T13:08:52;2.80;99.90
26342;DHT22;14054;50.108;8.640;2024-01-15T13:11:18;2.80;99.90
26342;DHT22;14054;50.108;8.640;2024-01-15T13:13:43;2.90;99.90
26342;DHT22;14054;50.108;8.640;2024-01-15T13:16:09;3.00;99.90
26342;DHT22;14054;50.108;8.640;2024-01-15T13:18:34;3.00;99.90
26342;DHT22;14054;50.108;8.640;2024-01-15T13:21:00;3.00;99.90
26342;DHT22;14054;50.108;8.640;2024-01-15T13:23:25;3.00;99.90
26342;DHT22;14054;50.108;8.640;2024-01-15T13:25:52;3.30;99.90
26342;DHT22;14054;50.108;8.640;2024-01-15T13:28:18;3.30;99.90
26342;DHT22;14054;50.108;8.640;2024-01-15T13:30:43;3.30;99.90
26342;DHT22;14054;50.108;8.640;2024-01-15T13:33:09;3.50;99.90
26342;DHT22;14054;50.108;8.640;2024-01-15T13:35:34;3.40;99.90
26342;DHT22;14054;50.108;8.640;2024-01-15T13:38:01;3.30;99.90
26342;DHT22;14054;50.108;8.640;2024-01-15T13:40:27;3.20;99.90
26342;DHT22;14054;50.108;8.640;2024-01-15T13:42:52;3.10;99.90
26342;DHT22;14054;50.108;8.640;2024-01-15T13:45:19;3.00;99.90
26342;DHT22;14054;50.108;8.640;2024-01-15T13:47:45;3.00;99.90
26342;DHT22;14054;50.108;8.640;2024-01-15T13:50:11;3.40;99.90
26342;DHT22;14054;50.108;8.640;2024-01-15T13:52:37;4.00;99.90
26342;DHT22;14054;50.108;8.640;2024-01-15T13:55:03;4.60;99.90
26342;DHT22;14054;50.108;8.640;2024-01-15T13:57:28;4.50;99.90
26342;DHT22;14054;50.108;8.640;2024-01-15T13:59:54;4.30;99.90
26342;DHT22;14054;50.108;8.640;2024-01-15T14:02:20;4.30;99.90
26342;DHT22;14054;50.108;8.640;2024-01-15T14:04:48;4.30;99.90
26342;DHT22;14054;50.108;8.640;2024-01-15T14:07:13;3.90;99.90
26342;DHT22;14054;50.108;8.640;2024-01-15T14:09:39;3.50;99.90
26342;DHT22;14054;50.108;8.640;2024-01-15T14:12:05;3.40;99.90
26342;DHT22;14054;50.108;8.640;2024-01-15T14:14:31;3.30;99.90
26342;DHT22;14054;50.108;8.640;2024-01-15T14:16:56;3.20;99.90
26342;DHT22;14054;50.108;8.640;2024-01-15T14:19:22;3.20;99.90
26342;DHT22;14054;50.108;8.640;2024-01-15T14:21:48;3.00;99.90
26342;DHT22;14054;50.108;8.640;2024-01-15T14:24:13;2.90;99.90
26342;DHT22;14054;50.108;8.640;2024-01-15T14:26:39;2.80;99.90
26342;DHT22;14054;50.108;8.640;2024-01-15T14:29:04;2.70;99.90
26342;DHT22;14054;50.108;8.640;2024-01-15T14:31:32;2.70;99.90
26342;DHT22;14054;50.108;8.640;2024-01-15T14:33:59;2.50;99.90
26342;DHT22;14054;50.108;8.640;2024-01-15T14:36:24;2.50;99.90
26342;DHT22;14054;50.108;8.640;2024-01-15T14:38:50;2.50;99.90
26342;DHT22;14054;50.108;8.640;2024-01-15T14:41:16;2.50;99.90
26342;DHT22;14054;50.108;8.640;2024-01-15T14:43:42;2.50;99.90
26342;DHT22;14054;50.108;8.640;2024-01-15T14:46:07;2.50;99.90
26342;DHT22;14054;50.108;8.640;2024-01-15T14:48:33;2.50;99.90
26342;DHT22;14054;50.108;8.640;2024-01-15T14:50:58;2.40;99.90
26342;DHT22;14054;50.108;8.640;2024-01-15T14:53:24;2.40;99.90
26342;DHT22;14054;50.108;8.640;2024-01-15T14:55:49;2.30;99.90
26342;DHT22;14054;50.108;8.640;2024-01-15T14:58:15;2.30;99.90
26342;DHT22;14054;50.108;8.640;2024-01-15T15:00:41;2.30;99.90
26342;DHT22;14054;50.108;8.640;2024-01-15T15:03:06;2.20;99.90
26342;DHT22;14054;50.108;8.640;2024-01-15T15:05:32;2.30;99.90
26342;DHT22;14054;50.108;8.640;2024-01-15T15:07:57;2.20;99.90
26342;DHT22;14054;50.108;8.640;2024-01-15T15:10:23;2.30;99.90
26342;DHT22;14054;50.108;8.640;2024-01-15T15:12:48;2.20;99.90
26342;DHT22;14054;50.108;8.640;2024-01-15T15:15:14;2.20;99.90
26342;DHT22;14054;50.108;8.640;2024-01-15T15:17:41;2.30;99.90
26342;DHT22;14054;50.108;8.640;2024-01-15T15:20:07;2.20;99.90
26342;DHT22;14054;50.108;8.640;2024-01-15T15:22:33;2.20;99.90
26342;DHT22;14054;50.108;8.640;2024-01-15T15:24:58;2.30;99.90
26342;DHT22;14054;50.108;8.640;2024-01-15T15:27:24;2.30;99.90
26342;DHT22;14054;50.108;8.640;2024-01-15T15:29:50;2.40;99.90
26342;DHT22;14054;50.108;8.640;2024-01-15T15:32:16;2.40;99.90
26342;DHT22;14054;50.108;8.640;2024-01-15T15:34:41;2.40;99.90
26342;DHT22;14054;50.108;8.640;2024-01-15T15:37:07;2.30;99.90
26342;DHT22;14054;50.108;8.640;2024-01-15T15:39:32;2.20;99.90
26342;DHT22;14054;50.108;8.640;2024-01-15T15:41:58;2.20;99.90
26342;DHT22;14054;50.108;8.640;2024-01-15T15:44:23;2.20;99.90